sensor_id;sensor_type;location;lat;lon;timestamp;temperature;humidity
20418;DHT22;10368;51.436;6.774;2022-09-01T00:29:35;19.60;77.20
20418;DHT22;10368;51.436;6.774;2022-09-01T00:32:03;19.30;78.90
20418;DHT22;10368;51.436;6.774;2022-09-01T00:34:30;19.20;78.50
20418;DHT22;10368;51.436;6.774;2022-09-01T00:36:57;19.10;79.30
20418;DHT22;10368;51.436;6.774;2022-09-01T00:39:24;19.00;79.40
20418;DHT22;10368;51.436;6.774;2022-09-01T00:41:51;19.00;79.70
20418;DHT22;10368;51.436;6.774;2022-09-01T00:44:20;19.00;79.60
20418;DHT22;10368;51.436;6.774;2022-09-01T00:46:55;19.10;80.20
20418;DHT22;10368;51.436;6.774;2022-09-01T00:51:59;19.00;79.80
20418;DHT22;10368;51.436;6.774;2022-09-01T00:54:31;19.10;79.60
20418;DHT22;10368;51.436;6.774;2022-09-01T00:57:00;19.00;79.40
20418;DHT22;10368;51.436;6.774;2022-09-01T00:59:28;18.90;79.60
20418;DHT22;10368;51.436;6.774;2022-09-01T01:01:56;18.90;79.90
20418;DHT22;10368;51.436;6.774;2022-09-01T01:04:24;18.90;79.90
20418;DHT22;10368;51.436;6.774;2022-09-01T01:06:54;19.00;80.00
20418;DHT22;10368;51.436;6.774;2022-09-01T01:09:30;18.90;80.10
20418;DHT22;10368;51.436;6.774;2022-09-01T01:11:59;18.80;80.10
20418;DHT22;10368;51.436;6.774;2022-09-01T01:14:28;18.80;80.60
20418;DHT22;10368;51.436;6.774;2022-09-01T01:16:58;18.80;80.90
20418;DHT22;10368;51.436;6.774;2022-09-01T01:19:55;18.90;80.90
20418;DHT22;10368;51.436;6.774;2022-09-01T01:22:57;19.10;80.30
20418;DHT22;10368;51.436;6.774;2022-09-01T01:25:33;19.00;80.40
20418;DHT22;10368;51.436;6.774;2022-09-01T01:28:22;18.90;80.60
20418;DHT22;10368;51.436;6.774;2022-09-01T01:30:54;18.70;80.70
20418;DHT22;10368;51.436;6.774;2022-09-01T01:33:28;18.90;81.20
20418;DHT22;10368;51.436;6.774;2022-09-01T01:35:56;18.80;81.40
20418;DHT22;10368;51.436;6.774;2022-09-01T01:38:24;18.80;81.30
20418;DHT22;10368;51.436;6.774;2022-09-01T01:40:51;18.80;81.30
20418;DHT22;10368;51.436;6.774;2022-09-01T01:43:22;18.80;81.30
20418;DHT22;10368;51.436;6.774;2022-09-01T01:45:52;18.60;81.70
20418;DHT22;10368;51.436;6.774;2022-09-01T01:48:20;18.70;81.70
20418;DHT22;10368;51.436;6.774;2022-09-01T01:50:51;18.80;81.50
20418;DHT22;10368;51.436;6.774;2022-09-01T01:53:19;18.70;82.10
20418;DHT22;10368;51.436;6.774;2022-09-01T01:55:47;18.60;82.10
20418;DHT22;10368;51.436;6.774;2022-09-01T01:58:19;18.70;82.70
20418;DHT22;10368;51.436;6.774;2022-09-01T02:00:49;18.50;82.30
20418;DHT22;10368;51.436;6.774;2022-09-01T02:03:19;18.60;82.00
20418;DHT22;10368;51.436;6.774;2022-09-01T02:05:49;18.50;82.60
20418;DHT22;10368;51.436;6.774;2022-09-01T02:58:15;18.50;83.20
20418;DHT22;10368;51.436;6.774;2022-09-01T03:00:45;17.80;85.90
20418;DHT22;10368;51.436;6.774;2022-09-01T03:03:18;17.90;86.00
20418;DHT22;10368;51.436;6.774;2022-09-01T03:05:50;18.00;86.30
20418;DHT22;10368;51.436;6.774;2022-09-01T03:08:23;17.90;86.70
20418;DHT22;10368;51.436;6.774;2022-09-01T03:10:51;17.80;86.20
20418;DHT22;10368;51.436;6.774;2022-09-01T03:13:21;17.70;86.30
20418;DHT22;10368;51.436;6.774;2022-09-01T03:15:49;17.60;86.90
20418;DHT22;10368;51.436;6.774;2022-09-01T10:48:54;24.90;60.00
20418;DHT22;10368;51.436;6.774;2022-09-01T10:59:26;25.80;55.80
20418;DHT22;10368;51.436;6.774;2022-09-01T11:02:08;25.40;56.70
20418;DHT22;10368;51.436;6.774;2022-09-01T11:07:43;26.10;55.60
20418;DHT22;10368;51.436;6.774;2022-09-01T11:10:44;25.90;55.80
20418;DHT22;10368;51.436;6.774;2022-09-01T11:16:39;25.90;56.20
20418;DHT22;10368;51.436;6.774;2022-09-01T11:21:43;27.20;66.70
20418;DHT22;10368;51.436;6.774;2022-09-01T11:27:07;26.80;72.30
20418;DHT22;10368;51.436;6.774;2022-09-01T11:32:24;27.10;55.00
20418;DHT22;10368;51.436;6.774;2022-09-01T11:34:54;27.30;54.40
20418;DHT22;10368;51.436;6.774;2022-09-01T11:37:23;27.20;54.50
20418;DHT22;10368;51.436;6.774;2022-09-01T11:40:02;27.30;54.40
20418;DHT22;10368;51.436;6.774;2022-09-01T11:42:38;27.60;55.20
20418;DHT22;10368;51.436;6.774;2022-09-01T11:47:56;28.00;54.00
20418;DHT22;10368;51.436;6.774;2022-09-01T11:52:59;26.80;55.00
20418;DHT22;10368;51.436;6.774;2022-09-01T11:57:58;27.80;54.50
20418;DHT22;10368;51.436;6.774;2022-09-01T12:00:32;27.50;54.50
20418;DHT22;10368;51.436;6.774;2022-09-01T12:05:36;28.80;51.90
20418;DHT22;10368;51.436;6.774;2022-09-01T12:08:15;28.30;52.20
20418;DHT22;10368;51.436;6.774;2022-09-01T12:10:49;27.20;54.20
20418;DHT22;10368;51.436;6.774;2022-09-01T12:13:20;27.80;53.90
20418;DHT22;10368;51.436;6.774;2022-09-01T12:15:53;28.20;54.10
20418;DHT22;10368;51.436;6.774;2022-09-01T12:18:46;29.00;52.50
20418;DHT22;10368;51.436;6.774;2022-09-01T12:21:32;28.50;52.80
20418;DHT22;10368;51.436;6.774;2022-09-01T12:26:52;28.50;52.40
20418;DHT22;10368;51.436;6.774;2022-09-01T12:29:27;27.60;53.10
20418;DHT22;10368;51.436;6.774;2022-09-01T12:31:59;28.10;53.00
20418;DHT22;10368;51.436;6.774;2022-09-01T12:42:21;28.20;65.60
20418;DHT22;10368;51.436;6.774;2022-09-01T12:52:33;29.10;51.20
20418;DHT22;10368;51.436;6.774;2022-09-01T12:57:33;29.80;51.50
20418;DHT22;10368;51.436;6.774;2022-09-01T13:02:40;29.70;50.70
20418;DHT22;10368;51.436;6.774;2022-09-01T13:05:25;29.10;51.30
20418;DHT22;10368;51.436;6.774;2022-09-01T13:08:04;28.70;51.40
20418;DHT22;10368;51.436;6.774;2022-09-01T13:10:39;29.00;51.50
20418;DHT22;10368;51.436;6.774;2022-09-01T13:13:09;28.70;52.30
20418;DHT22;10368;51.436;6.774;2022-09-01T13:15:41;29.10;51.60
20418;DHT22;10368;51.436;6.774;2022-09-01T13:18:08;29.20;50.80
20418;DHT22;10368;51.436;6.774;2022-09-01T13:20:37;30.20;50.20
20418;DHT22;10368;51.436;6.774;2022-09-01T13:23:04;29.60;50.20
20418;DHT22;10368;51.436;6.774;2022-09-01T13:25:31;29.30;50.20
20418;DHT22;10368;51.436;6.774;2022-09-01T13:27:58;29.50;51.00
20418;DHT22;10368;51.436;6.774;2022-09-01T13:30:28;29.60;50.70
20418;DHT22;10368;51.436;6.774;2022-09-01T13:32:56;30.20;50.50
20418;DHT22;10368;51.436;6.774;2022-09-01T13:35:43;30.10;50.00
20418;DHT22;10368;51.436;6.774;2022-09-01T13:38:10;29.80;50.00
20418;DHT22;10368;51.436;6.774;2022-09-01T13:40:37;29.90;50.00
20418;DHT22;10368;51.436;6.774;2022-09-01T13:43:04;30.00;50.60
20418;DHT22;10368;51.436;6.774;2022-09-01T13:45:31;29.20;49.80
20418;DHT22;10368;51.436;6.774;2022-09-01T13:47:59;29.40;50.10
20418;DHT22;10368;51.436;6.774;2022-09-01T13:50:47;29.40;50.20
20418;DHT22;10368;51.436;6.774;2022-09-01T13:53:35;29.60;49.70
20418;DHT22;10368;51.436;6.774;2022-09-01T13:56:02;29.90;49.50
20418;DHT22;10368;51.436;6.774;2022-09-01T13:58:29;29.80;49.10
20418;DHT22;10368;51.436;6.774;2022-09-01T14:00:56;29.40;49.90
20418;DHT22;10368;51.436;6.774;2022-09-01T14:03:25;29.10;50.50
20418;DHT22;10368;51.436;6.774;2022-09-01T14:05:54;29.10;51.00
20418;DHT22;10368;51.436;6.774;2022-09-01T14:08:21;29.30;50.40
20418;DHT22;10368;51.436;6.774;2022-09-01T14:10:51;28.80;50.70
20418;DHT22;10368;51.436;6.774;2022-09-01T14:13:20;28.50;50.60
20418;DHT22;10368;51.436;6.774;2022-09-01T14:15:48;28.80;50.80
20418;DHT22;10368;51.436;6.774;2022-09-01T14:18:15;28.60;51.50
20418;DHT22;10368;51.436;6.774;2022-09-01T14:20:45;29.40;51.60
20418;DHT22;10368;51.436;6.774;2022-09-01T14:23:13;29.20;51.70
20418;DHT22;10368;51.436;6.774;2022-09-01T14:25:50;29.30;50.80
20418;DHT22;10368;51.436;6.774;2022-09-01T14:28:19;29.10;49.90
20418;DHT22;10368;51.436;6.774;2022-09-01T14:30:49;29.40;50.30
20418;DHT22;10368;51.436;6.774;2022-09-01T14:33:16;28.70;50.60
20418;DHT22;10368;51.436;6.774;2022-09-01T14:35:46;28.20;51.00
20418;DHT22;10368;51.436;6.774;2022-09-01T14:38:13;27.60;51.40
20418;DHT22;10368;51.436;6.774;2022-09-01T14:40:41;28.00;52.60
20418;DHT22;10368;51.436;6.774;2022-09-01T14:43:10;28.50;51.90
20418;DHT22;10368;51.436;6.774;2022-09-01T14:45:41;28.30;51.80
20418;DHT22;10368;51.436;6.774;2022-09-01T14:48:13;28.50;51.10
20418;DHT22;10368;51.436;6.774;2022-09-01T14:50:43;28.50;50.90
20418;DHT22;10368;51.436;6.774;2022-09-01T14:53:10;28.60;50.00
20418;DHT22;10368;51.436;6.774;2022-09-01T14:55:37;29.30;49.70
20418;DHT22;10368;51.436;6.774;2022-09-01T14:58:04;29.00;49.80
20418;DHT22;10368;51.436;6.774;2022-09-01T15:00:32;28.50;50.50
20418;DHT22;10368;51.436;6.774;2022-09-01T15:03:01;28.00;51.00
20418;DHT22;10368;51.436;6.774;2022-09-01T15:05:29;27.70;51.30
20418;DHT22;10368;51.436;6.774;2022-09-01T15:08:06;27.30;51.60
20418;DHT22;10368;51.436;6.774;2022-09-01T15:10:34;27.00;52.20
20418;DHT22;10368;51.436;6.774;2022-09-01T15:13:02;27.20;52.70
20418;DHT22;10368;51.436;6.774;2022-09-01T15:15:30;27.10;52.10
20418;DHT22;10368;51.436;6.774;2022-09-01T15:17:59;27.40;51.90
20418;DHT22;10368;51.436;6.774;2022-09-01T15:20:26;27.70;51.80
20418;DHT22;10368;51.436;6.774;2022-09-01T15:23:19;27.70;51.50
20418;DHT22;10368;51.436;6.774;2022-09-01T15:25:47;27.90;51.90
20418;DHT22;10368;51.436;6.774;2022-09-01T15:28:14;27.80;52.20
20418;DHT22;10368;51.436;6.774;2022-09-01T15:30:42;27.60;50.60
20418;DHT22;10368;51.436;6.774;2022-09-01T15:33:13;28.40;50.40
20418;DHT22;10368;51.436;6.774;2022-09-01T15:35:42;28.40;49.80
20418;DHT22;10368;51.436;6.774;2022-09-01T15:38:10;27.80;50.40
20418;DHT22;10368;51.436;6.774;2022-09-01T15:40:46;28.30;50.60
20418;DHT22;10368;51.436;6.774;2022-09-01T15:43:24;28.10;50.80
20418;DHT22;10368;51.436;6.774;2022-09-01T15:45:51;28.10;50.10
20418;DHT22;10368;51.436;6.774;2022-09-01T15:48:18;27.90;50.00
20418;DHT22;10368;51.436;6.774;2022-09-01T15:50:45;28.30;50.40
20418;DHT22;10368;51.436;6.774;2022-09-01T15:53:12;28.00;50.30
20418;DHT22;10368;51.436;6.774;2022-09-01T15:55:40;27.80;50.30
20418;DHT22;10368;51.436;6.774;2022-09-01T15:58:08;27.90;50.00
20418;DHT22;10368;51.436;6.774;2022-09-01T16:00:36;27.50;50.70
20418;DHT22;10368;51.436;6.774;2022-09-01T16:03:05;27.60;50.40
20418;DHT22;10368;51.436;6.774;2022-09-01T16:05:34;27.90;51.10
20418;DHT22;10368;51.436;6.774;2022-09-01T16:08:02;27.60;50.50
20418;DHT22;10368;51.436;6.774;2022-09-01T16:10:30;27.60;50.50
20418;DHT22;10368;51.436;6.774;2022-09-01T16:13:02;27.30;51.00
20418;DHT22;10368;51.436;6.774;2022-09-01T16:15:29;27.30;51.20
20418;DHT22;10368;51.436;6.774;2022-09-01T16:24:06;27.30;50.50
20418;DHT22;10368;51.436;6.774;2022-09-01T16:26:35;26.90;51.50
20418;DHT22;10368;51.436;6.774;2022-09-01T16:29:11;27.20;51.70
20418;DHT22;10368;51.436;6.774;2022-09-01T16:31:41;27.00;51.40
20418;DHT22;10368;51.436;6.774;2022-09-01T16:34:15;27.00;51.70
20418;DHT22;10368;51.436;6.774;2022-09-01T16:37:05;27.50;51.10
20418;DHT22;10368;51.436;6.774;2022-09-01T16:58:45;26.30;51.10
20418;DHT22;10368;51.436;6.774;2022-09-01T17:09:43;25.70;51.90
20418;DHT22;10368;51.436;6.774;2022-09-01T17:15:15;25.30;52.60
20418;DHT22;10368;51.436;6.774;2022-09-01T17:17:45;25.40;52.50
20418;DHT22;10368;51.436;6.774;2022-09-01T17:20:23;25.30;52.60
20418;DHT22;10368;51.436;6.774;2022-09-01T17:22:52;25.40;52.40
20418;DHT22;10368;51.436;6.774;2022-09-01T17:25:36;25.20;52.90
20418;DHT22;10368;51.436;6.774;2022-09-01T17:28:14;25.00;52.80
20418;DHT22;10368;51.436;6.774;2022-09-01T17:36:48;24.90;52.80
20418;DHT22;10368;51.436;6.774;2022-09-01T17:39:48;24.70;52.80
20418;DHT22;10368;51.436;6.774;2022-09-01T17:42:41;24.60;53.00
20418;DHT22;10368;51.436;6.774;2022-09-01T17:48:03;24.60;53.10
20418;DHT22;10368;51.436;6.774;2022-09-01T17:50:48;24.40;53.50
20418;DHT22;10368;51.436;6.774;2022-09-01T17:54:16;24.40;53.50
20418;DHT22;10368;51.436;6.774;2022-09-01T17:58:57;24.20;54.50
20418;DHT22;10368;51.436;6.774;2022-09-01T18:10:04;24.10;54.60
20418;DHT22;10368;51.436;6.774;2022-09-01T18:12:36;24.00;55.20
20418;DHT22;10368;51.436;6.774;2022-09-01T18:15:17;23.80;55.20
20418;DHT22;10368;51.436;6.774;2022-09-01T18:17:52;23.80;55.30
20418;DHT22;10368;51.436;6.774;2022-09-01T18:20:27;23.70;56.20
20418;DHT22;10368;51.436;6.774;2022-09-01T18:25:41;23.50;56.60
20418;DHT22;10368;51.436;6.774;2022-09-01T18:28:08;23.40;56.70
20418;DHT22;10368;51.436;6.774;2022-09-01T18:33:29;23.70;59.20
20418;DHT22;10368;51.436;6.774;2022-09-01T18:36:31;23.60;57.50
20418;DHT22;10368;51.436;6.774;2022-09-01T18:39:00;23.60;58.10
20418;DHT22;10368;51.436;6.774;2022-09-01T18:41:41;23.50;59.10
20418;DHT22;10368;51.436;6.774;2022-09-01T18:44:30;23.40;58.70
20418;DHT22;10368;51.436;6.774;2022-09-01T18:47:05;23.10;58.90
20418;DHT22;10368;51.436;6.774;2022-09-01T18:58:05;23.20;59.70
20418;DHT22;10368;51.436;6.774;2022-09-01T19:00:52;23.10;60.40
20418;DHT22;10368;51.436;6.774;2022-09-01T19:03:31;23.10;60.20
20418;DHT22;10368;51.436;6.774;2022-09-01T19:06:08;23.10;60.80
20418;DHT22;10368;51.436;6.774;2022-09-01T19:22:19;22.70;60.70
20418;DHT22;10368;51.436;6.774;2022-09-01T19:25:22;22.60;61.00
20418;DHT22;10368;51.436;6.774;2022-09-01T19:30:54;22.50;61.60
20418;DHT22;10368;51.436;6.774;2022-09-01T19:33:26;22.40;62.00
20418;DHT22;10368;51.436;6.774;2022-09-01T19:35:59;22.40;61.70
20418;DHT22;10368;51.436;6.774;2022-09-01T19:38:27;22.40;62.70
20418;DHT22;10368;51.436;6.774;2022-09-01T19:41:07;22.20;62.40
20418;DHT22;10368;51.436;6.774;2022-09-01T19:43:38;22.20;62.80
20418;DHT22;10368;51.436;6.774;2022-09-01T19:57:16;22.10;62.50
20418;DHT22;10368;51.436;6.774;2022-09-01T20:02:44;21.90;63.40
20418;DHT22;10368;51.436;6.774;2022-09-01T20:05:25;21.80;64.20
20418;DHT22;10368;51.436;6.774;2022-09-01T20:08:07;21.90;63.50
20418;DHT22;10368;51.436;6.774;2022-09-01T20:10:56;21.90;63.50
20418;DHT22;10368;51.436;6.774;2022-09-01T20:19:08;21.70;63.90
20418;DHT22;10368;51.436;6.774;2022-09-01T20:21:40;21.70;64.30
20418;DHT22;10368;51.436;6.774;2022-09-01T20:24:25;21.50;64.70
20418;DHT22;10368;51.436;6.774;2022-09-01T20:27:02;21.40;64.50
20418;DHT22;10368;51.436;6.774;2022-09-01T20:35:51;21.40;65.20
20418;DHT22;10368;51.436;6.774;2022-09-01T20:38:34;21.30;65.10
20418;DHT22;10368;51.436;6.774;2022-09-01T21:27:04;21.20;65.00
20418;DHT22;10368;51.436;6.774;2022-09-01T21:51:40;20.60;69.00
20418;DHT22;10368;51.436;6.774;2022-09-01T21:54:08;20.20;70.60
20418;DHT22;10368;51.436;6.774;2022-09-01T21:56:35;20.20;69.00
20418;DHT22;10368;51.436;6.774;2022-09-01T21:59:04;20.10;69.80
20418;DHT22;10368;51.436;6.774;2022-09-01T22:01:33;20.10;69.70
20418;DHT22;10368;51.436;6.774;2022-09-01T22:04:01;20.10;69.80
20418;DHT22;10368;51.436;6.774;2022-09-01T22:06:31;20.10;69.80
20418;DHT22;10368;51.436;6.774;2022-09-01T22:08:59;20.00;69.80
20418;DHT22;10368;51.436;6.774;2022-09-01T22:11:28;20.10;69.80
20418;DHT22;10368;51.436;6.774;2022-09-01T22:13:57;20.00;69.90
20418;DHT22;10368;51.436;6.774;2022-09-01T22:16:25;19.90;70.20
20418;DHT22;10368;51.436;6.774;2022-09-01T22:18:52;19.80;70.20
20418;DHT22;10368;51.436;6.774;2022-09-01T22:21:20;19.80;70.50
